createdAt,value
2023-02-14T17:20:44.516Z,0.00
2023-02-14T17:21:48.113Z,0.00
2023-02-14T17:22:51.279Z,0.00
2023-02-14T17:23:54.576Z,0.00
2023-02-14T17:24:58.266Z,0.00
2023-02-14T17:26:01.752Z,0.00
2023-02-14T17:27:05.351Z,0.00
2023-02-14T17:28:08.833Z,0.00
2023-02-14T17:29:12.121Z,0.00
2023-02-14T17:30:15.767Z,0.29
2023-02-14T17:31:19.576Z,0.57
2023-02-14T17:32:23.067Z,0.00
2023-02-14T17:33:26.409Z,0.43
2023-02-14T17:34:29.808Z,0.57
2023-02-14T17:35:33.236Z,0.00
2023-02-14T17:36:36.528Z,0.00
2023-02-14T17:37:39.845Z,0.00
2023-02-14T17:38:43.446Z,0.00
2023-02-14T17:39:47.133Z,0.00
2023-02-14T17:40:50.494Z,0.00
2023-02-14T17:41:54.089Z,0.00
2023-02-14T17:42:57.607Z,0.00
2023-02-14T17:44:00.660Z,0.00
2023-02-14T17:45:04.151Z,0.00
2023-02-14T17:46:07.381Z,0.00
2023-02-14T17:47:10.909Z,0.00
2023-02-14T17:48:14.300Z,0.00
2023-02-14T17:49:17.809Z,0.00
2023-02-14T17:50:21.292Z,0.00
2023-02-14T17:51:23.970Z,0.00
2023-02-14T17:52:27.442Z,0.00
2023-02-14T17:53:30.662Z,0.00
2023-02-14T17:54:34.012Z,0.00
2023-02-14T17:55:37.320Z,0.00
2023-02-14T17:56:40.683Z,0.00
2023-02-14T17:57:44.070Z,0.00
2023-02-14T17:58:47.250Z,0.00
2023-02-14T17:59:50.913Z,0.00
2023-02-14T18:00:54.431Z,0.00
2023-02-14T18:01:58.044Z,0.00
2023-02-14T18:03:01.665Z,0.00
2023-02-14T18:04:05.112Z,0.00
2023-02-14T18:05:08.913Z,0.00
2023-02-14T18:06:12.151Z,0.00
2023-02-14T18:07:15.885Z,0.00
2023-02-14T18:08:19.484Z,0.00
2023-02-14T18:09:23.376Z,0.00
2023-02-14T18:10:26.765Z,0.00
2023-02-14T18:11:30.150Z,0.00
2023-02-14T18:12:33.706Z,0.00
2023-02-14T18:13:36.918Z,0.00
2023-02-14T18:14:40.612Z,0.00
2023-02-14T18:15:50.987Z,0.00
2023-02-14T18:16:54.358Z,0.00
2023-02-14T18:17:57.519Z,0.00
2023-02-14T18:19:00.781Z,0.00
2023-02-14T18:20:04.203Z,0.00
2023-02-14T18:21:07.690Z,0.00
2023-02-14T18:22:11.188Z,0.00
2023-02-14T18:23:14.579Z,0.00
2023-02-14T18:24:18.083Z,0.00
2023-02-14T18:25:21.747Z,0.00
2023-02-14T18:26:25.033Z,0.00
2023-02-14T18:34:30.056Z,0.00
2023-02-14T18:35:33.256Z,0.00
2023-02-14T18:36:36.305Z,0.00
2023-02-14T18:37:39.567Z,0.00
2023-02-14T18:38:42.663Z,0.00
2023-02-14T18:39:45.749Z,0.00
2023-02-14T18:40:49.221Z,0.00
2023-02-14T18:41:52.899Z,0.00
2023-02-14T18:42:56.542Z,0.00
2023-02-14T18:44:00.469Z,0.00
2023-02-14T18:45:03.985Z,0.00
2023-02-14T18:46:07.185Z,0.00
2023-02-14T18:47:10.272Z,0.00
2023-02-14T18:48:15.259Z,0.00
2023-02-14T18:49:19.672Z,0.00
2023-02-14T18:50:22.774Z,0.00
2023-02-14T18:51:26.864Z,0.00
2023-02-14T18:52:30.991Z,0.00
2023-02-14T18:53:35.389Z,0.00
2023-02-14T18:54:39.394Z,0.00
2023-02-14T18:55:43.388Z,0.00
2023-02-14T18:56:47.172Z,0.00
2023-02-14T18:57:51.088Z,0.50
2023-02-14T18:58:54.887Z,0.00
2023-02-14T18:59:58.701Z,0.00
2023-02-14T19:01:02.346Z,0.00
2023-02-14T19:02:06.509Z,0.00
2023-02-14T19:03:09.648Z,0.00
2023-02-14T19:04:13.224Z,0.00
2023-02-14T19:05:16.817Z,0.00
2023-02-14T19:06:20.517Z,0.29
2023-02-14T19:07:24.522Z,0.29
2023-02-14T19:08:28.222Z,0.00
2023-02-14T19:09:31.692Z,0.00
2023-02-14T19:10:34.875Z,0.43
2023-02-14T19:11:38.584Z,1.00
2023-02-14T19:12:42.072Z,0.57
2023-02-14T19:13:45.904Z,0.00
2023-02-14T19:14:49.825Z,0.00
2023-02-14T19:15:53.466Z,0.00
2023-02-14T19:16:57.043Z,0.43
2023-02-14T19:18:00.652Z,1.00
2023-02-14T19:19:04.433Z,0.50
2023-02-14T19:20:07.737Z,0.00
2023-02-14T19:21:11.324Z,0.00
2023-02-14T19:22:15.000Z,0.00
2023-02-14T19:23:18.664Z,0.00
2023-02-14T19:24:21.985Z,0.43
2023-02-14T19:25:25.467Z,0.57
2023-02-14T19:26:28.959Z,0.43
2023-02-14T19:27:32.548Z,0.57
2023-02-14T19:28:35.992Z,0.29
2023-02-14T19:29:39.401Z,0.00
2023-02-14T19:30:42.715Z,0.00
2023-02-14T19:31:46.301Z,0.00
2023-02-14T19:32:49.686Z,0.00
2023-02-14T19:33:53.928Z,0.00
2023-02-14T19:34:57.407Z,0.00
2023-02-14T19:36:00.975Z,0.00
2023-02-14T19:37:04.567Z,0.00
2023-02-14T19:38:08.301Z,0.50
2023-02-14T19:39:12.063Z,0.57
2023-02-14T19:40:15.859Z,0.00
2023-02-14T19:41:19.138Z,0.00
2023-02-14T19:42:22.733Z,0.00
2023-02-14T19:43:26.553Z,0.00
2023-02-14T19:44:30.343Z,0.00
2023-02-14T19:45:33.835Z,0.00
2023-02-14T19:46:37.515Z,0.00
2023-02-14T19:47:47.086Z,0.00
2023-02-14T19:48:45.316Z,0.00
2023-02-14T19:49:48.788Z,0.33
2023-02-14T19:50:52.389Z,1.00
2023-02-14T19:51:56.276Z,0.29
2023-02-14T19:52:59.669Z,0.50
2023-02-14T19:54:03.181Z,1.00
2023-02-14T19:55:06.855Z,0.83
2023-02-14T19:56:10.443Z,1.00
2023-02-14T19:57:14.445Z,1.00
2023-02-14T19:58:18.240Z,1.00
2023-02-14T19:59:21.940Z,1.00
2023-02-14T20:00:25.305Z,0.57
2023-02-14T20:01:28.984Z,0.43
2023-02-14T20:02:32.662Z,1.00
2023-02-14T20:03:36.100Z,1.00
2023-02-14T20:04:39.795Z,1.00
2023-02-14T20:05:43.394Z,1.00
2023-02-14T20:06:46.994Z,0.57
2023-02-14T20:07:50.495Z,0.00
2023-02-14T20:08:53.904Z,0.43
2023-02-14T20:09:57.540Z,1.00
2023-02-14T20:11:01.488Z,0.00
2023-02-14T20:12:05.234Z,0.14
2023-02-14T20:13:08.935Z,0.43
2023-02-14T20:14:12.635Z,0.00
2023-02-14T20:15:16.129Z,0.00
2023-02-14T20:16:19.780Z,0.29
2023-02-14T20:17:22.985Z,0.50
2023-02-14T20:18:26.473Z,0.00
2023-02-14T20:19:29.858Z,0.00
2023-02-14T20:20:34.295Z,0.00
2023-02-14T20:21:38.173Z,0.00
2023-02-14T20:22:41.672Z,0.00
2023-02-14T20:23:45.719Z,0.75
2023-02-14T20:24:49.357Z,1.00
2023-02-14T20:25:52.947Z,0.57
2023-02-14T20:26:56.446Z,0.00
2023-02-14T20:27:59.719Z,0.14
2023-02-14T20:29:03.323Z,0.00
2023-02-14T20:30:07.203Z,0.43
2023-02-14T20:31:11.041Z,1.00
2023-02-14T20:32:15.240Z,0.88
2023-02-14T20:33:19.024Z,0.37
2023-02-14T20:34:22.610Z,0.43
2023-02-14T20:35:26.730Z,0.57
2023-02-14T20:36:30.305Z,0.00
2023-02-14T20:37:34.118Z,0.00
2023-02-14T20:38:37.806Z,0.00
2023-02-14T20:39:41.992Z,0.00
2023-02-14T20:40:46.238Z,0.00
2023-02-14T20:41:49.906Z,0.37
2023-02-14T20:42:53.791Z,0.00
2023-02-14T20:43:57.386Z,0.86
2023-02-14T20:45:01.306Z,0.57
2023-02-14T20:46:04.772Z,0.00
2023-02-14T20:47:09.086Z,0.00
2023-02-14T20:48:12.686Z,0.00
2023-02-14T20:49:16.709Z,0.00
2023-02-14T20:50:20.295Z,0.00
2023-02-14T20:51:24.399Z,0.00
2023-02-14T20:52:29.025Z,0.00
2023-02-14T20:53:32.811Z,0.50
2023-02-14T20:54:38.489Z,0.50
2023-02-14T20:55:41.492Z,0.00
2023-02-14T20:56:45.495Z,0.14
2023-02-14T20:57:49.517Z,1.00
2023-02-14T20:58:53.096Z,0.50
2023-02-14T20:59:56.783Z,0.00
2023-02-14T21:01:01.127Z,0.00
2023-02-14T21:02:05.306Z,0.50
2023-02-14T21:03:09.000Z,0.57
2023-02-14T21:04:12.640Z,0.00
2023-02-14T21:05:16.186Z,0.57
2023-02-14T21:06:19.770Z,0.29
2023-02-14T21:07:23.357Z,0.57
2023-02-14T21:08:26.768Z,0.00
2023-02-14T21:09:30.035Z,0.00
2023-02-14T21:10:33.511Z,0.43
2023-02-14T21:11:37.105Z,0.57
2023-02-14T21:12:40.940Z,0.00
2023-02-14T21:13:44.289Z,0.00
2023-02-14T21:14:47.878Z,0.86
2023-02-14T21:15:51.400Z,2.71
2023-02-14T21:16:55.169Z,2.14
2023-02-14T21:17:58.665Z,0.50
2023-02-14T21:19:02.354Z,0.57
2023-02-14T21:20:05.954Z,0.00
2023-02-14T21:21:09.526Z,0.00
2023-02-14T21:22:13.336Z,0.00
2023-02-14T21:23:16.719Z,0.37
2023-02-14T21:24:20.098Z,0.14
2023-02-14T21:25:25.269Z,0.00
2023-02-14T21:26:28.233Z,0.00
2023-02-14T21:27:31.523Z,0.00
2023-02-14T21:28:34.980Z,0.00
2023-02-14T21:29:38.590Z,0.00
2023-02-14T21:30:42.571Z,0.00
2023-02-14T21:31:46.456Z,0.00
2023-02-14T21:32:50.398Z,0.00
2023-02-14T21:33:54.178Z,0.00
2023-02-14T21:34:58.277Z,0.43
2023-02-14T21:36:01.974Z,0.43
2023-02-14T21:37:05.764Z,0.00
2023-02-14T21:38:09.458Z,0.00
2023-02-14T21:39:13.099Z,0.00
2023-02-14T21:40:16.836Z,0.00
2023-02-14T21:41:20.340Z,0.00
2023-02-14T21:42:23.725Z,0.00
2023-02-14T21:43:27.271Z,0.00
2023-02-14T21:44:30.699Z,0.00
2023-02-14T21:45:34.340Z,0.00
2023-02-14T21:46:37.849Z,0.00
2023-02-14T21:47:41.471Z,0.00
2023-02-14T21:48:44.965Z,0.00
2023-02-14T21:49:48.559Z,0.00
2023-02-14T21:50:52.137Z,0.00
2023-02-14T21:51:55.534Z,0.00
2023-02-14T21:52:59.530Z,0.00
2023-02-14T21:54:03.098Z,0.00
2023-02-14T21:55:06.421Z,0.43
2023-02-14T21:56:09.895Z,0.29
2023-02-14T21:57:13.680Z,0.43
2023-02-14T21:58:17.277Z,0.57
2023-02-14T21:59:20.988Z,0.00
2023-02-14T22:00:24.776Z,0.00
2023-02-14T22:01:28.361Z,0.43
2023-02-14T22:02:31.951Z,2.00
2023-02-14T22:03:35.339Z,1.71
2023-02-14T22:04:38.830Z,0.67
2023-02-14T22:05:42.316Z,0.00
2023-02-14T22:06:45.563Z,0.00
2023-02-14T22:07:48.800Z,0.86
2023-02-14T22:08:52.287Z,1.00
2023-02-14T22:09:55.657Z,1.00
2023-02-14T22:10:59.105Z,0.57
2023-02-14T22:12:02.616Z,1.25
2023-02-14T22:13:05.669Z,1.57
2023-02-14T22:14:08.912Z,0.67
2023-02-14T22:15:12.288Z,1.00
2023-02-14T22:16:15.897Z,1.86
2023-02-14T22:17:20.616Z,1.86
2023-02-14T22:18:24.187Z,0.13
2023-02-14T22:19:28.086Z,0.00
2023-02-14T22:20:31.765Z,0.43
2023-02-14T22:21:35.401Z,0.29
2023-02-14T22:22:39.094Z,1.00
2023-02-14T22:23:42.479Z,1.14
2023-02-14T22:24:46.042Z,0.43
2023-02-14T22:25:51.678Z,0.43
2023-02-14T22:26:55.055Z,0.50
2023-02-14T22:27:58.497Z,0.43
2023-02-14T22:29:02.175Z,0.57
2023-02-14T22:30:06.022Z,0.37
2023-02-14T22:31:09.698Z,0.00
2023-02-14T22:32:13.308Z,0.00
2023-02-14T22:33:16.829Z,0.25
2023-02-14T22:34:20.531Z,1.29
2023-02-14T22:35:24.221Z,0.14
2023-02-14T22:36:28.135Z,0.00
2023-02-14T22:37:32.238Z,0.00
2023-02-14T22:38:35.697Z,0.00
2023-02-14T22:39:39.515Z,0.00
2023-02-14T22:40:43.289Z,0.00
2023-02-14T22:41:46.763Z,0.00
2023-02-14T22:42:50.226Z,0.00
2023-02-14T22:43:53.976Z,0.50
2023-02-14T22:44:57.568Z,0.86
2023-02-14T22:46:01.646Z,1.14
2023-02-14T22:47:05.558Z,0.25
2023-02-14T22:48:09.352Z,0.71
2023-02-14T22:49:13.285Z,0.57
2023-02-14T22:50:17.216Z,0.00
2023-02-14T22:51:20.841Z,0.00
2023-02-14T22:52:24.427Z,0.00
2023-02-14T22:53:28.044Z,0.43
2023-02-14T22:54:31.648Z,1.50
2023-02-14T22:55:35.127Z,1.14
2023-02-14T22:56:38.292Z,0.43
2023-02-14T22:57:41.580Z,0.33
2023-02-14T22:58:44.952Z,1.00
2023-02-14T22:59:48.372Z,0.14
2023-02-14T23:00:51.641Z,0.00
2023-02-14T23:01:54.760Z,0.00
2023-02-14T23:02:58.015Z,0.43
2023-02-14T23:04:01.175Z,0.57
2023-02-14T23:05:04.365Z,1.00
2023-02-14T23:06:07.745Z,0.57
2023-02-14T23:07:11.249Z,0.00
2023-02-14T23:08:14.416Z,0.71
2023-02-14T23:09:17.905Z,0.71
2023-02-14T23:10:21.490Z,0.71
2023-02-14T23:11:24.777Z,1.57
2023-02-14T23:12:28.078Z,0.57
2023-02-14T23:13:31.283Z,0.00
2023-02-14T23:14:34.538Z,0.00
2023-02-14T23:15:37.914Z,0.00
2023-02-14T23:16:41.106Z,0.00
2023-02-14T23:17:44.636Z,0.00
2023-02-14T23:18:48.158Z,0.00
2023-02-14T23:19:51.664Z,0.43
2023-02-14T23:22:03.276Z,0.00
2023-02-14T23:23:06.771Z,0.00
2023-02-14T23:24:10.229Z,0.00
2023-02-14T23:25:14.020Z,0.00
2023-02-14T23:26:17.509Z,0.00
2023-02-14T23:27:20.903Z,0.00
2023-02-14T23:28:24.494Z,0.00
2023-02-14T23:29:27.952Z,0.00
2023-02-14T23:30:31.150Z,0.00
2023-02-14T23:31:34.564Z,0.00
2023-02-14T23:32:38.256Z,0.50
2023-02-14T23:33:41.774Z,0.00
2023-02-14T23:34:45.262Z,0.14
2023-02-14T23:35:48.905Z,0.00
2023-02-14T23:36:52.424Z,0.43
2023-02-14T23:37:56.106Z,0.57
2023-02-14T23:38:59.596Z,0.00
2023-02-14T23:40:03.199Z,0.00
2023-02-14T23:41:06.491Z,0.00
2023-02-14T23:42:10.056Z,0.00
2023-02-14T23:43:13.554Z,0.00
2023-02-14T23:44:17.069Z,0.00
2023-02-14T23:45:20.892Z,0.43
2023-02-14T23:46:24.532Z,0.75
2023-02-14T23:47:27.914Z,0.57
2023-02-14T23:48:31.512Z,0.50
2023-02-14T23:49:34.917Z,0.86
2023-02-14T23:50:38.392Z,1.00
2023-02-14T23:51:41.764Z,0.00
2023-02-14T23:52:45.459Z,0.00
2023-02-14T23:53:48.970Z,0.00
2023-02-14T23:54:52.647Z,0.00
2023-02-14T23:55:56.128Z,0.00
2023-02-14T23:56:59.734Z,0.00
2023-02-14T23:58:03.210Z,0.00
2023-02-14T23:59:06.473Z,0.00
